createdAt,value
2023-02-04T00:02:14.310Z,95.25
2023-02-04T00:04:40.953Z,95.03
2023-02-04T00:07:07.651Z,95.09
2023-02-04T00:09:36.563Z,95.39
2023-02-04T00:12:03.305Z,94.64
2023-02-04T00:14:30.102Z,95.82
2023-02-04T00:17:01.910Z,95.09
2023-02-04T00:19:34.992Z,95.39
2023-02-04T00:22:04.189Z,96.20
2023-02-04T00:24:49.241Z,96.07
2023-02-04T00:27:29.306Z,95.28
2023-02-04T00:30:07.278Z,95.57
2023-02-04T00:32:37.059Z,96.07
2023-02-04T00:35:22.874Z,97.42
2023-02-04T00:37:51.782Z,97.50
2023-02-04T00:40:18.931Z,97.33
2023-02-04T00:42:45.723Z,96.70
2023-02-04T00:45:23.562Z,97.29
2023-02-04T00:47:50.271Z,97.09
2023-02-04T00:50:19.368Z,96.90
2023-02-04T00:52:48.952Z,98.50
2023-02-04T00:55:20.537Z,98.41
2023-02-04T00:57:49.672Z,98.45
2023-02-04T01:00:17.580Z,98.19
2023-02-04T01:02:47.246Z,98.45
2023-02-04T01:05:18.899Z,99.12
2023-02-04T01:07:50.337Z,99.44
2023-02-04T01:10:17.357Z,99.97
2023-02-04T01:12:44.525Z,100.00
2023-02-04T01:15:13.779Z,100.00
2023-02-04T01:17:41.788Z,100.00
2023-02-04T01:20:10.486Z,100.00
2023-02-04T01:22:38.310Z,99.10
2023-02-04T01:25:13.976Z,98.79
2023-02-04T01:27:43.471Z,99.71
2023-02-04T01:30:11.094Z,100.00
2023-02-04T01:32:40.968Z,100.00
2023-02-04T01:35:11.859Z,100.00
2023-02-04T01:37:41.887Z,100.00
2023-02-04T01:40:11.469Z,100.00
2023-02-04T01:42:41.743Z,100.00
2023-02-04T01:45:28.150Z,100.00
2023-02-04T01:47:58.646Z,100.00
2023-02-04T01:50:25.341Z,100.00
2023-02-04T01:52:52.232Z,100.00
2023-02-04T01:55:21.883Z,100.00
2023-02-04T01:57:50.624Z,100.00
2023-02-04T02:00:44.516Z,100.00
2023-02-04T02:03:11.509Z,100.00
2023-02-04T02:05:40.617Z,100.00
2023-02-04T02:08:08.290Z,100.00
2023-02-04T02:10:37.161Z,100.00
2023-02-04T02:13:05.918Z,100.00
2023-02-04T02:15:32.686Z,100.00
2023-02-04T02:17:59.358Z,100.00
2023-02-04T02:20:33.178Z,100.00
2023-02-04T02:23:02.493Z,100.00
2023-02-04T02:25:29.454Z,100.00
2023-02-04T02:28:02.793Z,100.00
2023-02-04T02:30:39.519Z,100.00
2023-02-04T02:33:07.038Z,100.00
2023-02-04T02:35:34.565Z,100.00
2023-02-04T02:38:01.207Z,100.00
2023-02-04T02:40:28.479Z,100.00
2023-02-04T02:42:55.515Z,100.00
2023-02-04T02:45:36.881Z,100.00
2023-02-04T02:48:07.830Z,100.00
2023-02-04T02:50:35.365Z,100.00
2023-02-04T02:53:13.091Z,100.00
2023-02-04T02:55:40.034Z,100.00
2023-02-04T02:58:30.589Z,100.00
2023-02-04T03:01:02.443Z,100.00
2023-02-04T03:03:35.854Z,100.00
2023-02-04T03:06:11.393Z,100.00
2023-02-04T03:08:39.091Z,100.00
2023-02-04T03:11:07.367Z,100.00
2023-02-04T03:13:34.248Z,100.00
2023-02-04T03:16:01.229Z,100.00
2023-02-04T03:18:30.770Z,99.72
2023-02-04T03:20:58.233Z,100.00
2023-02-04T03:23:25.663Z,100.00
2023-02-04T03:26:03.051Z,100.00
2023-02-04T03:28:30.305Z,100.00
2023-02-04T03:30:57.172Z,100.00
2023-02-04T03:33:26.698Z,100.00
2023-02-04T03:35:53.803Z,100.00
2023-02-04T03:38:20.448Z,100.00
2023-02-04T03:40:47.100Z,100.00
2023-02-04T03:43:13.764Z,100.00
2023-02-04T03:45:45.348Z,100.00
2023-02-04T03:48:12.580Z,100.00
2023-02-04T03:50:39.204Z,100.00
2023-02-04T03:53:08.371Z,100.00
2023-02-04T03:55:34.996Z,100.00
2023-02-04T03:58:04.925Z,99.75
2023-02-04T04:00:36.495Z,100.00
2023-02-04T04:03:03.130Z,100.00
2023-02-04T04:05:29.756Z,100.00
2023-02-04T04:07:56.401Z,100.00
2023-02-04T04:10:25.610Z,100.00
2023-02-04T04:12:52.237Z,100.00
2023-02-04T04:15:18.880Z,100.00
2023-02-04T04:17:45.596Z,100.00
2023-02-04T04:20:13.172Z,100.00
2023-02-04T04:22:48.023Z,100.00
2023-02-04T04:25:20.170Z,100.00
2023-02-04T04:27:50.848Z,100.00
2023-02-04T04:30:21.547Z,100.00
2023-02-04T04:32:48.161Z,99.82
2023-02-04T04:35:14.876Z,100.00
2023-02-04T04:37:44.285Z,100.00
2023-02-04T04:40:22.845Z,100.00
2023-02-04T04:42:52.206Z,100.00
2023-02-04T04:45:21.848Z,100.00
2023-02-04T04:47:48.701Z,100.00
2023-02-04T04:50:15.568Z,99.97
2023-02-04T04:52:42.145Z,100.00
2023-02-04T04:55:09.453Z,100.00
2023-02-04T04:57:41.451Z,100.00
2023-02-04T05:00:08.944Z,100.00
2023-02-04T05:02:35.583Z,100.00
2023-02-04T05:05:02.461Z,100.00
2023-02-04T05:07:37.645Z,100.00
2023-02-04T05:10:05.074Z,100.00
2023-02-04T05:12:36.973Z,100.00
2023-02-04T05:15:06.383Z,100.00
2023-02-04T05:17:33.363Z,100.00
2023-02-04T05:20:00.350Z,100.00
2023-02-04T05:22:27.034Z,100.00
2023-02-04T05:24:55.090Z,100.00
2023-02-04T05:27:30.848Z,100.00
2023-02-04T05:29:57.473Z,100.00
2023-02-04T05:32:24.148Z,100.00
2023-02-04T05:34:50.881Z,99.32
2023-02-04T05:37:17.786Z,98.98
2023-02-04T05:39:44.647Z,98.92
2023-02-04T05:42:13.759Z,99.67
2023-02-04T05:44:40.331Z,99.96
2023-02-04T05:47:06.951Z,100.00
2023-02-04T05:49:33.754Z,100.00
2023-02-04T05:52:00.406Z,100.00
2023-02-04T05:54:27.129Z,100.00
2023-02-04T05:56:53.752Z,100.00
2023-02-04T05:59:20.381Z,100.00
2023-02-04T06:01:47.041Z,100.00
2023-02-04T06:04:21.379Z,100.00
2023-02-04T06:06:48.350Z,100.00
2023-02-04T06:09:15.093Z,100.00
2023-02-04T06:11:41.691Z,99.01
2023-02-04T06:14:11.599Z,98.51
2023-02-04T06:16:41.287Z,98.88
2023-02-04T06:19:17.244Z,100.00
2023-02-04T06:21:52.677Z,100.00
2023-02-04T06:24:23.661Z,100.00
2023-02-04T06:29:30.741Z,100.00
2023-02-04T06:31:57.513Z,100.00
2023-02-04T06:34:24.185Z,100.00
2023-02-04T06:36:50.786Z,100.00
2023-02-04T06:39:27.573Z,100.00
2023-02-04T06:41:54.233Z,100.00
2023-02-04T06:44:30.172Z,100.00
2023-02-04T06:47:04.667Z,100.00
2023-02-04T06:49:34.154Z,100.00
2023-02-04T06:52:03.608Z,100.00
2023-02-04T06:54:30.292Z,100.00
2023-02-04T06:56:56.924Z,100.00
2023-02-04T06:59:23.522Z,100.00
2023-02-04T07:01:50.148Z,100.00
2023-02-04T07:04:32.354Z,100.00
2023-02-04T07:07:08.486Z,100.00
2023-02-04T07:09:38.019Z,100.00
2023-02-04T07:12:06.184Z,97.81
2023-02-04T07:14:33.257Z,95.90
2023-02-04T07:17:03.041Z,96.71
2023-02-04T07:19:29.745Z,94.31
2023-02-04T07:21:56.330Z,94.65
2023-02-04T07:24:25.883Z,96.99
2023-02-04T07:26:52.480Z,92.04
2023-02-04T07:29:25.073Z,92.64
2023-02-04T07:31:52.184Z,93.60
2023-02-04T07:34:19.139Z,94.60
2023-02-04T07:36:48.610Z,93.88
2023-02-04T07:39:15.340Z,93.76
2023-02-04T07:41:42.189Z,93.68
2023-02-04T07:44:08.771Z,95.50
2023-02-04T07:46:35.558Z,96.32
2023-02-04T07:49:02.291Z,96.51
2023-02-04T07:51:29.269Z,93.76
2023-02-04T07:53:57.138Z,92.61
2023-02-04T07:56:23.781Z,92.22
2023-02-04T07:58:50.544Z,92.38
2023-02-04T08:01:17.258Z,93.62
2023-02-04T08:03:44.136Z,94.73
2023-02-04T08:06:10.807Z,95.92
2023-02-04T08:08:37.425Z,97.02
2023-02-04T08:11:04.128Z,96.93
2023-02-04T08:13:30.792Z,97.28
2023-02-04T08:15:57.476Z,98.69
2023-02-04T08:18:24.340Z,99.20
2023-02-04T08:20:51.607Z,100.00
2023-02-04T08:23:18.244Z,100.00
2023-02-04T08:25:44.845Z,100.00
2023-02-04T08:28:11.823Z,100.00
2023-02-04T08:30:38.827Z,100.00
2023-02-04T08:33:05.619Z,100.00
2023-02-04T08:35:32.244Z,100.00
2023-02-04T08:37:58.930Z,98.96
2023-02-04T08:40:28.760Z,99.91
2023-02-04T08:42:55.457Z,97.44
2023-02-04T08:45:22.086Z,97.67
2023-02-04T08:47:49.038Z,97.25
2023-02-04T08:50:18.962Z,96.67
2023-02-04T08:52:45.580Z,96.66
2023-02-04T08:55:12.325Z,96.90
2023-02-04T08:57:41.302Z,96.91
2023-02-04T09:00:08.431Z,94.81
2023-02-04T09:02:34.975Z,94.87
2023-02-04T09:05:01.577Z,96.21
2023-02-04T09:07:28.175Z,96.35
2023-02-04T09:09:54.786Z,96.50
2023-02-04T09:12:27.233Z,96.62
2023-02-04T09:14:56.568Z,95.76
2023-02-04T09:17:23.268Z,95.54
2023-02-04T09:19:52.859Z,95.32
2023-02-04T09:22:19.672Z,95.30
2023-02-04T09:24:50.925Z,95.78
2023-02-04T09:27:17.488Z,95.83
2023-02-04T09:29:44.121Z,95.64
2023-02-04T09:32:13.036Z,94.68
2023-02-04T09:34:40.144Z,94.58
2023-02-04T09:37:07.969Z,93.67
2023-02-04T09:39:38.270Z,93.82
2023-02-04T09:42:07.805Z,93.84
2023-02-04T09:44:34.435Z,93.80
2023-02-04T09:47:11.896Z,94.59
2023-02-04T09:49:41.064Z,93.01
2023-02-04T09:52:13.156Z,92.67
2023-02-04T09:54:39.826Z,91.63
2023-02-04T09:57:15.628Z,91.42
2023-02-04T09:59:43.209Z,91.60
2023-02-04T10:02:27.833Z,92.52
2023-02-04T10:05:05.589Z,91.83
2023-02-04T10:07:35.253Z,90.12
2023-02-04T10:10:04.952Z,90.70
2023-02-04T10:12:31.698Z,90.49
2023-02-04T10:14:59.703Z,89.35
2023-02-04T10:17:27.183Z,89.48
2023-02-04T10:19:53.985Z,89.25
2023-02-04T10:22:22.050Z,88.71
2023-02-04T10:24:56.700Z,88.67
2023-02-04T10:27:26.010Z,89.20
2023-02-04T10:30:06.618Z,88.80
2023-02-04T10:32:35.978Z,88.62
2023-02-04T10:35:18.695Z,88.57
2023-02-04T10:37:45.845Z,88.78
2023-02-04T10:40:27.493Z,88.11
2023-02-04T10:42:57.138Z,86.64
2023-02-04T10:45:33.195Z,86.77
2023-02-04T10:47:59.792Z,85.41
2023-02-04T10:50:32.254Z,85.51
2023-02-04T10:53:06.331Z,85.76
2023-02-04T10:55:33.512Z,85.52
2023-02-04T10:58:00.195Z,84.43
2023-02-04T11:00:29.153Z,85.12
2023-02-04T11:03:01.953Z,83.88
2023-02-04T11:05:39.772Z,82.92
2023-02-04T11:08:20.150Z,80.99
2023-02-04T11:10:50.081Z,80.06
2023-02-04T11:13:39.281Z,79.96
2023-02-04T11:16:18.284Z,80.54
2023-02-04T11:18:44.910Z,79.38
2023-02-04T11:21:34.192Z,77.71
2023-02-04T11:24:13.214Z,77.21
2023-02-04T11:27:06.643Z,77.02
2023-02-04T11:29:35.676Z,77.32
2023-02-04T11:32:33.250Z,78.30
2023-02-04T11:35:28.074Z,76.77
2023-02-04T11:37:56.012Z,76.98
2023-02-04T11:40:36.957Z,75.97
2023-02-04T11:43:16.340Z,75.73
2023-02-04T11:45:50.854Z,75.63
2023-02-04T11:48:26.037Z,74.69
2023-02-04T11:51:01.293Z,74.93
2023-02-04T11:53:33.317Z,75.43
2023-02-04T11:55:59.981Z,73.96
2023-02-04T11:58:29.536Z,73.51
2023-02-04T12:00:58.479Z,73.63
2023-02-04T12:03:34.454Z,73.85
2023-02-04T12:06:10.583Z,72.35
2023-02-04T12:08:46.905Z,72.47
2023-02-04T12:11:38.113Z,71.33
2023-02-04T12:14:09.988Z,70.32
2023-02-04T12:16:50.631Z,69.43
2023-02-04T12:19:30.560Z,70.63
2023-02-04T12:21:57.286Z,70.93
2023-02-04T12:24:31.677Z,70.18
2023-02-04T12:27:06.073Z,67.19
2023-02-04T12:29:39.952Z,68.66
2023-02-04T12:32:06.800Z,65.88
2023-02-04T12:34:34.173Z,65.46
2023-02-04T12:37:00.830Z,65.92
2023-02-04T12:39:27.510Z,67.71
2023-02-04T12:41:54.156Z,67.57
2023-02-04T12:44:28.940Z,66.90
2023-02-04T12:46:59.923Z,66.35
2023-02-04T12:49:30.318Z,66.23
2023-02-04T12:52:06.204Z,66.61
2023-02-04T12:54:40.871Z,64.92
2023-02-04T12:57:07.424Z,63.85
2023-02-04T12:59:34.064Z,63.65
2023-02-04T13:02:00.805Z,64.22
2023-02-04T13:04:29.775Z,65.76
2023-02-04T13:07:01.881Z,65.63
2023-02-04T13:09:31.021Z,65.53
2023-02-04T13:12:00.381Z,64.76
2023-02-04T13:14:27.021Z,65.56
2023-02-04T13:16:53.586Z,65.73
2023-02-04T13:19:20.209Z,65.37
2023-02-04T13:21:46.761Z,65.08
2023-02-04T13:24:13.357Z,65.27
2023-02-04T13:26:39.997Z,67.70
2023-02-04T13:29:06.558Z,67.34
2023-02-04T13:31:33.273Z,67.26
2023-02-04T13:33:59.868Z,65.85
2023-02-04T13:36:29.011Z,67.88
2023-02-04T13:38:58.845Z,68.19
2023-02-04T13:41:25.635Z,68.57
2023-02-04T13:43:52.272Z,68.31
2023-02-04T13:46:20.342Z,68.78
2023-02-04T13:48:47.017Z,69.13
2023-02-04T13:51:23.471Z,67.29
2023-02-04T13:53:59.269Z,67.63
2023-02-04T13:56:28.464Z,66.13
2023-02-04T13:58:58.020Z,65.86
2023-02-04T14:01:24.744Z,67.73
2023-02-04T14:04:04.332Z,65.63
2023-02-04T14:06:35.045Z,62.00
2023-02-04T14:09:02.174Z,63.41
2023-02-04T14:11:35.200Z,63.95
2023-02-04T14:14:02.586Z,64.75
2023-02-04T14:16:29.456Z,64.93
2023-02-04T14:19:02.748Z,63.66
2023-02-04T14:21:29.355Z,73.47
2023-02-04T14:23:55.971Z,75.51
2023-02-04T14:26:30.742Z,81.77
2023-02-04T14:28:57.395Z,84.15
2023-02-04T14:31:24.275Z,87.05
2023-02-04T14:33:51.034Z,87.89
2023-02-04T14:36:17.744Z,89.05
2023-02-04T14:38:46.720Z,91.94
2023-02-04T14:41:19.166Z,92.78
2023-02-04T14:43:46.845Z,94.13
2023-02-04T14:46:17.884Z,93.93
2023-02-04T14:48:44.578Z,94.87
2023-02-04T14:51:11.984Z,95.86
2023-02-04T14:53:48.353Z,96.01
2023-02-04T14:56:17.569Z,96.42
2023-02-04T14:58:44.265Z,96.37
2023-02-04T15:01:13.305Z,96.14
2023-02-04T15:03:43.924Z,97.06
2023-02-04T15:06:10.610Z,96.73
2023-02-04T15:08:37.302Z,96.05
2023-02-04T15:11:07.228Z,96.20
2023-02-04T15:13:34.449Z,96.63
2023-02-04T15:16:01.193Z,96.62
2023-02-04T15:18:28.507Z,96.65
2023-02-04T15:20:55.226Z,97.47
2023-02-04T15:23:21.928Z,98.11
2023-02-04T15:25:48.533Z,98.35
2023-02-04T15:28:15.242Z,97.70
2023-02-04T15:30:42.061Z,97.53
2023-02-04T15:33:08.710Z,97.22
2023-02-04T15:35:35.363Z,96.55
2023-02-04T15:38:01.995Z,96.38
2023-02-04T15:40:28.655Z,95.53
2023-02-04T15:42:57.950Z,95.46
2023-02-04T15:45:29.841Z,95.54
2023-02-04T15:47:57.943Z,95.48
2023-02-04T15:50:25.140Z,96.24
2023-02-04T15:52:55.259Z,97.27
2023-02-04T15:55:27.872Z,98.96
2023-02-04T15:57:54.474Z,98.84
2023-02-04T16:00:24.156Z,99.11
2023-02-04T16:02:51.238Z,98.75
2023-02-04T16:05:17.982Z,98.38
2023-02-04T16:07:47.480Z,98.83
2023-02-04T16:10:30.636Z,99.03
2023-02-04T16:12:57.487Z,98.34
2023-02-04T16:15:24.945Z,98.76
2023-02-04T16:17:51.582Z,99.31
2023-02-04T16:20:19.009Z,98.83
2023-02-04T16:22:45.604Z,99.23
2023-02-04T16:25:12.257Z,99.34
2023-02-04T16:27:38.848Z,99.58
2023-02-04T16:30:06.098Z,99.15
2023-02-04T16:32:32.860Z,99.44
2023-02-04T16:35:00.105Z,99.64
2023-02-04T16:37:27.509Z,99.89
2023-02-04T16:40:02.426Z,100.00
2023-02-04T16:42:29.057Z,100.00
2023-02-04T16:44:58.333Z,99.83
2023-02-04T16:47:25.402Z,100.00
2023-02-04T16:49:52.004Z,98.49
2023-02-04T16:52:18.737Z,98.60
2023-02-04T16:54:49.395Z,99.17
2023-02-04T16:57:16.067Z,99.60
2023-02-04T16:59:48.705Z,99.96
2023-02-04T17:02:18.707Z,100.00
2023-02-04T17:04:54.249Z,100.00
2023-02-04T17:07:20.882Z,100.00
2023-02-04T17:09:57.517Z,100.00
2023-02-04T17:12:24.217Z,100.00
2023-02-04T17:14:56.609Z,100.00
2023-02-04T17:17:26.353Z,100.00
2023-02-04T17:19:52.970Z,100.00
2023-02-04T17:22:19.548Z,100.00
2023-02-04T17:24:46.175Z,100.00
2023-02-04T17:27:13.273Z,100.00
2023-02-04T17:29:39.853Z,100.00
2023-02-04T17:32:07.085Z,100.00
2023-02-04T17:34:33.748Z,100.00
2023-02-04T17:37:00.362Z,100.00
2023-02-04T17:39:27.002Z,100.00
2023-02-04T17:41:53.650Z,100.00
2023-02-04T17:44:20.251Z,100.00
2023-02-04T17:46:49.903Z,100.00
2023-02-04T17:49:16.622Z,100.00
2023-02-04T17:51:43.263Z,100.00
2023-02-04T17:54:11.906Z,100.00
2023-02-04T17:56:38.538Z,100.00
2023-02-04T17:59:14.001Z,100.00
2023-02-04T18:01:41.317Z,100.00
2023-02-04T18:04:13.078Z,100.00
2023-02-04T18:06:40.212Z,100.00
2023-02-04T18:09:17.710Z,100.00
2023-02-04T18:11:44.963Z,100.00
2023-02-04T18:14:30.397Z,100.00
2023-02-04T18:16:58.745Z,100.00
2023-02-04T18:19:31.397Z,100.00
2023-02-04T18:22:01.899Z,100.00
2023-02-04T18:24:36.684Z,100.00
2023-02-04T18:27:31.465Z,100.00
2023-02-04T18:29:58.123Z,100.00
2023-02-04T18:32:53.592Z,100.00
2023-02-04T18:35:37.680Z,100.00
2023-02-04T18:38:21.533Z,100.00
2023-02-04T18:40:58.709Z,100.00
2023-02-04T18:43:35.748Z,100.00
2023-02-04T18:46:16.366Z,100.00
2023-02-04T18:48:59.445Z,100.00
2023-02-04T18:54:36.317Z,100.00
2023-02-04T18:57:12.365Z,100.00
2023-02-04T18:59:40.159Z,100.00
2023-02-04T19:02:46.894Z,100.00
2023-02-04T19:05:23.407Z,100.00
2023-02-04T19:07:50.245Z,100.00
2023-02-04T19:10:35.993Z,100.00
2023-02-04T19:13:29.432Z,100.00
2023-02-04T19:16:29.335Z,100.00
2023-02-04T19:18:56.901Z,100.00
2023-02-04T19:21:28.760Z,100.00
2023-02-04T19:24:02.427Z,100.00
2023-02-04T19:26:32.183Z,100.00
2023-02-04T19:29:01.635Z,100.00
2023-02-04T19:31:54.397Z,100.00
2023-02-04T19:34:27.993Z,100.00
2023-02-04T19:36:55.364Z,100.00
2023-02-04T19:39:40.053Z,98.50
2023-02-04T19:42:25.577Z,95.94
2023-02-04T19:44:52.452Z,94.18
2023-02-04T19:47:42.972Z,90.85
2023-02-04T19:50:12.231Z,87.59
2023-02-04T19:52:48.768Z,84.84
2023-02-04T19:55:18.751Z,83.63
2023-02-04T19:57:52.580Z,82.80
2023-02-04T20:00:34.223Z,84.68
2023-02-04T20:03:02.092Z,83.59
2023-02-04T20:05:37.564Z,81.05
2023-02-04T20:08:39.860Z,80.39
2023-02-04T20:11:32.048Z,78.93
2023-02-04T20:14:21.149Z,81.77
2023-02-04T20:17:21.857Z,79.17
2023-02-04T20:19:48.776Z,79.09
2023-02-04T20:22:18.410Z,78.30
2023-02-04T20:25:00.141Z,76.73
2023-02-04T20:27:38.727Z,76.42
2023-02-04T20:30:09.338Z,77.70
2023-02-04T20:32:42.337Z,76.37
2023-02-04T20:35:12.096Z,74.73
2023-02-04T20:37:39.788Z,75.33
2023-02-04T20:40:47.642Z,73.21
2023-02-04T20:43:20.844Z,72.60
2023-02-04T20:45:54.992Z,73.08
2023-02-04T20:48:36.237Z,71.12
2023-02-04T20:51:06.236Z,71.77
2023-02-04T20:53:49.360Z,71.99
2023-02-04T20:56:36.618Z,75.21
2023-02-04T20:59:28.972Z,71.08
2023-02-04T21:01:55.572Z,72.80
2023-02-04T21:04:30.478Z,72.80
2023-02-04T21:07:13.389Z,71.18
2023-02-04T21:09:40.073Z,70.67
2023-02-04T21:12:07.110Z,69.53
2023-02-04T21:14:34.291Z,68.98
2023-02-04T21:17:01.123Z,69.45
2023-02-04T21:19:27.904Z,69.05
2023-02-04T21:21:55.722Z,69.02
2023-02-04T21:24:22.874Z,69.19
2023-02-04T21:26:49.973Z,69.17
2023-02-04T21:29:16.839Z,68.45
2023-02-04T21:31:54.325Z,68.68
2023-02-04T21:34:21.059Z,68.49
2023-02-04T21:36:48.833Z,68.40
2023-02-04T21:39:15.501Z,68.73
2023-02-04T21:41:55.583Z,69.62
2023-02-04T21:44:22.232Z,69.13
2023-02-04T21:46:48.866Z,69.25
2023-02-04T21:49:15.587Z,76.21
2023-02-04T21:51:42.228Z,70.25
2023-02-04T21:54:16.663Z,69.88
2023-02-04T21:56:43.261Z,69.51
2023-02-04T21:59:09.947Z,70.21
2023-02-04T22:01:42.581Z,70.17
2023-02-04T22:04:21.121Z,70.97
2023-02-04T22:06:47.735Z,71.78
2023-02-04T22:09:19.509Z,70.77
2023-02-04T22:11:54.394Z,71.28
2023-02-04T22:14:23.976Z,71.31
2023-02-04T22:16:57.608Z,71.74
2023-02-04T22:19:24.206Z,71.54
2023-02-04T22:21:50.838Z,71.71
2023-02-04T22:24:17.501Z,71.62
2023-02-04T22:26:44.121Z,72.06
2023-02-04T22:29:10.757Z,71.41
2023-02-04T22:31:40.757Z,72.34
2023-02-04T22:34:10.566Z,72.79
2023-02-04T22:36:37.180Z,72.64
2023-02-04T22:39:03.780Z,72.32
2023-02-04T22:41:30.373Z,72.50
2023-02-04T22:43:57.086Z,72.79
2023-02-04T22:46:23.741Z,73.19
2023-02-04T22:48:50.384Z,73.58
2023-02-04T22:51:24.314Z,73.71
2023-02-04T22:53:54.174Z,73.89
2023-02-04T22:56:20.860Z,73.97
2023-02-04T22:58:47.589Z,74.58
2023-02-04T23:01:14.620Z,74.96
2023-02-04T23:03:41.395Z,74.75
2023-02-04T23:06:08.156Z,75.39
2023-02-04T23:08:42.990Z,75.04
2023-02-04T23:11:11.610Z,75.34
2023-02-04T23:13:38.659Z,76.22
2023-02-04T23:16:08.451Z,76.23
2023-02-04T23:18:35.072Z,76.63
2023-02-04T23:21:01.804Z,76.48
2023-02-04T23:23:28.435Z,76.70
2023-02-04T23:26:07.208Z,76.90
2023-02-04T23:28:33.828Z,76.91
2023-02-04T23:31:02.774Z,77.03
2023-02-04T23:33:29.858Z,77.51
2023-02-04T23:35:59.273Z,77.86
2023-02-04T23:38:26.102Z,78.18
2023-02-04T23:40:52.718Z,78.76
2023-02-04T23:43:19.319Z,78.90
2023-02-04T23:45:48.414Z,78.75
2023-02-04T23:48:18.021Z,79.25
2023-02-04T23:50:50.747Z,79.26
2023-02-04T23:53:17.525Z,79.92
2023-02-04T23:55:45.089Z,80.17
2023-02-04T23:58:12.031Z,80.44
